Terminal Aerodrome Forecast
Issued by NWS

Home | Current Version | Previous Version | Text Only | Print | Product List | Glossary On
Versions: 1 2 3 4 5 6 7 8 9 10 11 12 13 14 15 16 17
000
FTUS42 KFFC 231700
TAFPDK
TAF
KPDK 231729Z 2318/2418 31007KT P6SM SCT045
     FM232000 31008G13KT P6SM VCSH BKN045
     FM240200 33005KT P6SM FEW050 SCT250
     FM241100 06004KT 5SM BR SCT030 BKN050
     FM241500 07006G12KT P6SM BKN040 PROB30 2416/2418 5SM SHRA BR
      BKN030=

USA.gov is the U.S. government's official web portal to all federal, state and local government web resources and services.